sensor_id;sensor_type;location;lat;lon;timestamp;P1;durP1;ratioP1;P2;durP2;ratioP2
72198;SDS011;60103;51.014;16.992;2023-04-08T00:00:17;13.60;;;6.20;;
72198;SDS011;60103;51.014;16.992;2023-04-08T00:03:05;11.80;;;5.30;;
72198;SDS011;60103;51.014;16.992;2023-04-08T00:05:35;13.50;;;6.30;;
72198;SDS011;60103;51.014;16.992;2023-04-08T00:08:04;16.10;;;6.20;;
72198;SDS011;60103;51.014;16.992;2023-04-08T00:10:33;12.50;;;5.20;;
72198;SDS011;60103;51.014;16.992;2023-04-08T00:13:02;14.10;;;5.80;;
72198;SDS011;60103;51.014;16.992;2023-04-08T00:15:31;14.90;;;6.10;;
72198;SDS011;60103;51.014;16.992;2023-04-08T00:18:00;13.90;;;6.30;;
72198;SDS011;60103;51.014;16.992;2023-04-08T00:20:29;14.60;;;6.30;;
72198;SDS011;60103;51.014;16.992;2023-04-08T00:22:59;13.20;;;5.50;;
72198;SDS011;60103;51.014;16.992;2023-04-08T00:25:28;14.30;;;6.20;;
72198;SDS011;60103;51.014;16.992;2023-04-08T00:27:58;14.70;;;6.00;;
72198;SDS011;60103;51.014;16.992;2023-04-08T00:30:27;15.50;;;6.20;;
72198;SDS011;60103;51.014;16.992;2023-04-08T00:32:56;17.60;;;6.60;;
72198;SDS011;60103;51.014;16.992;2023-04-08T00:35:25;17.30;;;7.30;;
72198;SDS011;60103;51.014;16.992;2023-04-08T00:37:54;14.40;;;6.30;;
72198;SDS011;60103;51.014;16.992;2023-04-08T00:40:23;16.00;;;6.40;;
72198;SDS011;60103;51.014;16.992;2023-04-08T00:42:52;15.50;;;6.10;;
72198;SDS011;60103;51.014;16.992;2023-04-08T00:45:21;16.00;;;6.10;;
72198;SDS011;60103;51.014;16.992;2023-04-08T00:47:50;15.30;;;7.40;;
72198;SDS011;60103;51.014;16.992;2023-04-08T00:50:20;16.50;;;7.00;;
72198;SDS011;60103;51.014;16.992;2023-04-08T00:52:48;16.60;;;6.60;;
72198;SDS011;60103;51.014;16.992;2023-04-08T00:55:17;16.10;;;6.60;;
72198;SDS011;60103;51.014;16.992;2023-04-08T00:57:46;17.70;;;7.40;;
72198;SDS011;60103;51.014;16.992;2023-04-08T01:00:16;18.00;;;7.10;;
72198;SDS011;60103;51.014;16.992;2023-04-08T01:03:01;18.70;;;7.20;;
72198;SDS011;60103;51.014;16.992;2023-04-08T01:05:53;18.10;;;7.40;;
72198;SDS011;60103;51.014;16.992;2023-04-08T01:08:24;20.70;;;7.50;;
72198;SDS011;60103;51.014;16.992;2023-04-08T01:10:56;17.70;;;6.70;;
72198;SDS011;60103;51.014;16.992;2023-04-08T01:13:27;18.70;;;7.10;;
72198;SDS011;60103;51.014;16.992;2023-04-08T01:15:58;20.90;;;7.60;;
72198;SDS011;60103;51.014;16.992;2023-04-08T01:18:27;19.60;;;7.40;;
72198;SDS011;60103;51.014;16.992;2023-04-08T01:20:57;19.00;;;6.80;;
72198;SDS011;60103;51.014;16.992;2023-04-08T01:26:23;19.00;;;7.50;;
72198;SDS011;60103;51.014;16.992;2023-04-08T01:28:54;18.90;;;7.30;;
72198;SDS011;60103;51.014;16.992;2023-04-08T01:31:25;19.20;;;7.30;;
72198;SDS011;60103;51.014;16.992;2023-04-08T01:33:54;18.70;;;7.40;;
72198;SDS011;60103;51.014;16.992;2023-04-08T01:36:23;22.60;;;7.80;;
72198;SDS011;60103;51.014;16.992;2023-04-08T01:38:53;20.30;;;8.50;;
72198;SDS011;60103;51.014;16.992;2023-04-08T01:41:22;23.90;;;8.10;;
72198;SDS011;60103;51.014;16.992;2023-04-08T01:43:51;19.70;;;7.30;;
72198;SDS011;60103;51.014;16.992;2023-04-08T01:46:21;22.20;;;9.10;;
72198;SDS011;60103;51.014;16.992;2023-04-08T01:48:50;22.00;;;8.50;;
72198;SDS011;60103;51.014;16.992;2023-04-08T01:51:20;24.00;;;9.50;;
72198;SDS011;60103;51.014;16.992;2023-04-08T01:53:50;24.70;;;9.40;;
72198;SDS011;60103;51.014;16.992;2023-04-08T01:56:19;22.90;;;8.70;;
72198;SDS011;60103;51.014;16.992;2023-04-08T01:58:50;21.90;;;8.30;;
72198;SDS011;60103;51.014;16.992;2023-04-08T02:01:21;23.60;;;9.70;;
72198;SDS011;60103;51.014;16.992;2023-04-08T02:03:50;23.40;;;9.40;;
72198;SDS011;60103;51.014;16.992;2023-04-08T02:06:24;23.20;;;9.00;;
72198;SDS011;60103;51.014;16.992;2023-04-08T02:08:54;25.10;;;10.80;;
72198;SDS011;60103;51.014;16.992;2023-04-08T02:11:23;28.70;;;12.10;;
72198;SDS011;60103;51.014;16.992;2023-04-08T02:13:53;28.40;;;11.10;;
72198;SDS011;60103;51.014;16.992;2023-04-08T02:16:23;29.60;;;11.30;;
72198;SDS011;60103;51.014;16.992;2023-04-08T02:18:57;24.60;;;9.80;;
72198;SDS011;60103;51.014;16.992;2023-04-08T02:21:47;21.50;;;8.40;;
72198;SDS011;60103;51.014;16.992;2023-04-08T02:24:20;22.90;;;9.10;;
72198;SDS011;60103;51.014;16.992;2023-04-08T02:26:49;23.20;;;9.00;;
72198;SDS011;60103;51.014;16.992;2023-04-08T02:29:19;27.90;;;10.60;;
72198;SDS011;60103;51.014;16.992;2023-04-08T02:31:51;23.30;;;7.80;;
72198;SDS011;60103;51.014;16.992;2023-04-08T02:34:20;21.90;;;8.80;;
72198;SDS011;60103;51.014;16.992;2023-04-08T02:36:49;25.30;;;10.90;;
72198;SDS011;60103;51.014;16.992;2023-04-08T02:39:19;22.70;;;9.80;;
72198;SDS011;60103;51.014;16.992;2023-04-08T02:41:49;22.90;;;9.30;;
72198;SDS011;60103;51.014;16.992;2023-04-08T02:44:18;23.90;;;9.50;;
72198;SDS011;60103;51.014;16.992;2023-04-08T02:46:47;20.40;;;8.20;;
72198;SDS011;60103;51.014;16.992;2023-04-08T02:49:15;22.60;;;8.40;;
72198;SDS011;60103;51.014;16.992;2023-04-08T02:51:44;21.20;;;8.80;;
72198;SDS011;60103;51.014;16.992;2023-04-08T02:54:14;23.20;;;10.00;;
72198;SDS011;60103;51.014;16.992;2023-04-08T02:56:43;19.70;;;8.90;;
72198;SDS011;60103;51.014;16.992;2023-04-08T02:59:12;21.80;;;8.70;;
72198;SDS011;60103;51.014;16.992;2023-04-08T03:01:41;22.30;;;9.30;;
72198;SDS011;60103;51.014;16.992;2023-04-08T03:04:10;23.30;;;9.60;;
72198;SDS011;60103;51.014;16.992;2023-04-08T03:06:39;20.70;;;9.20;;
72198;SDS011;60103;51.014;16.992;2023-04-08T03:09:07;20.40;;;9.20;;
72198;SDS011;60103;51.014;16.992;2023-04-08T03:11:36;21.40;;;8.40;;
72198;SDS011;60103;51.014;16.992;2023-04-08T03:14:05;19.30;;;8.30;;
72198;SDS011;60103;51.014;16.992;2023-04-08T03:16:35;18.40;;;7.60;;
72198;SDS011;60103;51.014;16.992;2023-04-08T03:19:03;20.40;;;8.30;;
72198;SDS011;60103;51.014;16.992;2023-04-08T03:21:32;17.10;;;7.20;;
72198;SDS011;60103;51.014;16.992;2023-04-08T03:24:01;19.60;;;7.80;;
72198;SDS011;60103;51.014;16.992;2023-04-08T03:26:30;17.20;;;6.80;;
72198;SDS011;60103;51.014;16.992;2023-04-08T03:28:58;19.60;;;8.60;;
72198;SDS011;60103;51.014;16.992;2023-04-08T03:31:27;16.70;;;7.10;;
72198;SDS011;60103;51.014;16.992;2023-04-08T03:33:56;19.00;;;8.70;;
72198;SDS011;60103;51.014;16.992;2023-04-08T03:36:25;20.40;;;8.20;;
72198;SDS011;60103;51.014;16.992;2023-04-08T03:38:54;18.70;;;8.00;;
72198;SDS011;60103;51.014;16.992;2023-04-08T03:41:24;18.70;;;7.90;;
72198;SDS011;60103;51.014;16.992;2023-04-08T03:43:52;17.50;;;7.40;;
72198;SDS011;60103;51.014;16.992;2023-04-08T03:46:21;21.70;;;9.00;;
72198;SDS011;60103;51.014;16.992;2023-04-08T03:48:50;22.50;;;9.30;;
72198;SDS011;60103;51.014;16.992;2023-04-08T03:51:19;20.10;;;9.10;;
72198;SDS011;60103;51.014;16.992;2023-04-08T03:53:49;23.00;;;9.50;;
72198;SDS011;60103;51.014;16.992;2023-04-08T03:56:18;20.40;;;9.10;;
72198;SDS011;60103;51.014;16.992;2023-04-08T03:58:46;15.40;;;5.70;;
72198;SDS011;60103;51.014;16.992;2023-04-08T04:01:16;17.30;;;8.40;;
72198;SDS011;60103;51.014;16.992;2023-04-08T04:03:45;16.50;;;6.40;;
72198;SDS011;60103;51.014;16.992;2023-04-08T04:06:14;19.30;;;8.60;;
72198;SDS011;60103;51.014;16.992;2023-04-08T04:08:43;17.00;;;6.50;;
72198;SDS011;60103;51.014;16.992;2023-04-08T04:11:12;16.30;;;7.60;;
72198;SDS011;60103;51.014;16.992;2023-04-08T04:13:42;19.80;;;7.90;;
72198;SDS011;60103;51.014;16.992;2023-04-08T04:16:11;16.90;;;7.60;;
72198;SDS011;60103;51.014;16.992;2023-04-08T04:18:39;19.80;;;8.30;;
72198;SDS011;60103;51.014;16.992;2023-04-08T04:21:08;17.10;;;7.00;;
72198;SDS011;60103;51.014;16.992;2023-04-08T04:23:37;17.70;;;7.10;;
72198;SDS011;60103;51.014;16.992;2023-04-08T04:26:09;17.90;;;7.00;;
72198;SDS011;60103;51.014;16.992;2023-04-08T04:28:37;19.60;;;8.10;;
72198;SDS011;60103;51.014;16.992;2023-04-08T04:31:07;17.90;;;8.10;;
72198;SDS011;60103;51.014;16.992;2023-04-08T04:33:36;18.30;;;8.20;;
72198;SDS011;60103;51.014;16.992;2023-04-08T04:36:04;16.90;;;7.70;;
72198;SDS011;60103;51.014;16.992;2023-04-08T04:38:35;17.30;;;7.80;;
72198;SDS011;60103;51.014;16.992;2023-04-08T04:41:04;18.90;;;9.00;;
72198;SDS011;60103;51.014;16.992;2023-04-08T04:43:33;17.80;;;6.90;;
72198;SDS011;60103;51.014;16.992;2023-04-08T04:46:02;16.50;;;7.90;;
72198;SDS011;60103;51.014;16.992;2023-04-08T04:48:34;20.80;;;9.20;;
72198;SDS011;60103;51.014;16.992;2023-04-08T04:51:03;18.70;;;8.30;;
72198;SDS011;60103;51.014;16.992;2023-04-08T04:53:32;18.90;;;8.70;;
72198;SDS011;60103;51.014;16.992;2023-04-08T04:56:01;17.90;;;8.30;;
72198;SDS011;60103;51.014;16.992;2023-04-08T04:58:30;18.80;;;9.30;;
72198;SDS011;60103;51.014;16.992;2023-04-08T05:00:58;20.30;;;8.10;;
72198;SDS011;60103;51.014;16.992;2023-04-08T05:03:27;17.80;;;7.40;;
72198;SDS011;60103;51.014;16.992;2023-04-08T05:05:56;21.50;;;8.60;;
72198;SDS011;60103;51.014;16.992;2023-04-08T05:08:26;16.80;;;7.20;;
72198;SDS011;60103;51.014;16.992;2023-04-08T05:10:55;19.30;;;8.40;;
72198;SDS011;60103;51.014;16.992;2023-04-08T05:13:24;20.20;;;9.00;;
72198;SDS011;60103;51.014;16.992;2023-04-08T05:15:53;19.70;;;8.30;;
72198;SDS011;60103;51.014;16.992;2023-04-08T05:18:21;20.30;;;9.00;;
72198;SDS011;60103;51.014;16.992;2023-04-08T05:20:50;18.40;;;8.50;;
72198;SDS011;60103;51.014;16.992;2023-04-08T05:23:19;19.30;;;8.30;;
72198;SDS011;60103;51.014;16.992;2023-04-08T05:25:48;20.60;;;8.80;;
72198;SDS011;60103;51.014;16.992;2023-04-08T05:28:17;21.40;;;9.80;;
72198;SDS011;60103;51.014;16.992;2023-04-08T05:30:49;21.40;;;9.10;;
72198;SDS011;60103;51.014;16.992;2023-04-08T05:33:19;25.60;;;12.30;;
72198;SDS011;60103;51.014;16.992;2023-04-08T05:35:48;22.60;;;9.70;;
72198;SDS011;60103;51.014;16.992;2023-04-08T05:38:17;19.20;;;8.90;;
72198;SDS011;60103;51.014;16.992;2023-04-08T05:40:45;23.10;;;9.60;;
72198;SDS011;60103;51.014;16.992;2023-04-08T05:43:14;20.60;;;10.20;;
72198;SDS011;60103;51.014;16.992;2023-04-08T05:45:43;23.00;;;10.40;;
72198;SDS011;60103;51.014;16.992;2023-04-08T05:48:12;18.60;;;7.90;;
72198;SDS011;60103;51.014;16.992;2023-04-08T05:50:41;20.90;;;9.30;;
72198;SDS011;60103;51.014;16.992;2023-04-08T05:53:10;16.30;;;7.40;;
72198;SDS011;60103;51.014;16.992;2023-04-08T05:55:39;22.80;;;9.70;;
72198;SDS011;60103;51.014;16.992;2023-04-08T05:58:09;20.70;;;9.30;;
72198;SDS011;60103;51.014;16.992;2023-04-08T06:00:38;18.50;;;8.20;;
72198;SDS011;60103;51.014;16.992;2023-04-08T06:03:07;17.90;;;7.90;;
72198;SDS011;60103;51.014;16.992;2023-04-08T06:05:36;22.70;;;9.80;;
72198;SDS011;60103;51.014;16.992;2023-04-08T06:08:05;21.30;;;9.80;;
72198;SDS011;60103;51.014;16.992;2023-04-08T06:10:34;18.30;;;8.40;;
72198;SDS011;60103;51.014;16.992;2023-04-08T06:13:03;17.70;;;8.30;;
72198;SDS011;60103;51.014;16.992;2023-04-08T06:15:32;20.00;;;8.90;;
72198;SDS011;60103;51.014;16.992;2023-04-08T06:18:00;21.60;;;9.20;;
72198;SDS011;60103;51.014;16.992;2023-04-08T06:20:29;19.20;;;8.30;;
72198;SDS011;60103;51.014;16.992;2023-04-08T06:22:58;19.90;;;8.20;;
72198;SDS011;60103;51.014;16.992;2023-04-08T06:25:27;17.30;;;7.50;;
72198;SDS011;60103;51.014;16.992;2023-04-08T06:27:56;20.60;;;8.20;;
72198;SDS011;60103;51.014;16.992;2023-04-08T06:30:24;17.60;;;7.90;;
72198;SDS011;60103;51.014;16.992;2023-04-08T06:32:53;18.50;;;8.50;;
72198;SDS011;60103;51.014;16.992;2023-04-08T06:35:22;19.50;;;9.10;;
72198;SDS011;60103;51.014;16.992;2023-04-08T06:37:52;20.30;;;8.70;;
72198;SDS011;60103;51.014;16.992;2023-04-08T06:40:21;12.70;;;5.50;;
72198;SDS011;60103;51.014;16.992;2023-04-08T06:42:49;17.10;;;8.10;;
72198;SDS011;60103;51.014;16.992;2023-04-08T06:45:22;19.30;;;7.70;;
72198;SDS011;60103;51.014;16.992;2023-04-08T06:47:51;20.30;;;9.60;;
72198;SDS011;60103;51.014;16.992;2023-04-08T06:50:20;18.10;;;8.20;;
72198;SDS011;60103;51.014;16.992;2023-04-08T06:52:49;18.60;;;9.30;;
72198;SDS011;60103;51.014;16.992;2023-04-08T06:55:17;18.20;;;8.30;;
72198;SDS011;60103;51.014;16.992;2023-04-08T06:57:46;20.10;;;9.40;;
72198;SDS011;60103;51.014;16.992;2023-04-08T07:00:15;17.40;;;7.50;;
72198;SDS011;60103;51.014;16.992;2023-04-08T07:02:44;15.00;;;7.20;;
72198;SDS011;60103;51.014;16.992;2023-04-08T07:05:14;17.60;;;7.90;;
72198;SDS011;60103;51.014;16.992;2023-04-08T07:07:44;15.10;;;6.80;;
72198;SDS011;60103;51.014;16.992;2023-04-08T07:10:12;15.40;;;6.90;;
72198;SDS011;60103;51.014;16.992;2023-04-08T07:12:41;15.50;;;7.40;;
72198;SDS011;60103;51.014;16.992;2023-04-08T07:15:10;19.80;;;9.40;;
72198;SDS011;60103;51.014;16.992;2023-04-08T07:17:39;16.20;;;7.80;;
72198;SDS011;60103;51.014;16.992;2023-04-08T07:20:08;20.40;;;8.20;;
72198;SDS011;60103;51.014;16.992;2023-04-08T07:22:37;17.10;;;7.70;;
72198;SDS011;60103;51.014;16.992;2023-04-08T07:25:07;16.00;;;7.60;;
72198;SDS011;60103;51.014;16.992;2023-04-08T07:27:36;19.10;;;9.10;;
72198;SDS011;60103;51.014;16.992;2023-04-08T07:30:05;17.10;;;7.30;;
72198;SDS011;60103;51.014;16.992;2023-04-08T07:32:35;17.00;;;7.90;;
72198;SDS011;60103;51.014;16.992;2023-04-08T07:35:04;15.70;;;7.70;;
72198;SDS011;60103;51.014;16.992;2023-04-08T07:37:34;15.40;;;7.20;;
72198;SDS011;60103;51.014;16.992;2023-04-08T07:40:03;16.00;;;7.10;;
72198;SDS011;60103;51.014;16.992;2023-04-08T07:42:33;19.70;;;8.60;;
72198;SDS011;60103;51.014;16.992;2023-04-08T07:45:02;19.50;;;9.50;;
72198;SDS011;60103;51.014;16.992;2023-04-08T07:47:31;20.10;;;9.20;;
72198;SDS011;60103;51.014;16.992;2023-04-08T07:50:00;18.30;;;8.60;;
72198;SDS011;60103;51.014;16.992;2023-04-08T07:52:29;20.90;;;9.80;;
72198;SDS011;60103;51.014;16.992;2023-04-08T07:54:58;15.80;;;6.70;;
72198;SDS011;60103;51.014;16.992;2023-04-08T07:57:27;16.30;;;7.50;;
72198;SDS011;60103;51.014;16.992;2023-04-08T07:59:56;14.00;;;6.30;;
72198;SDS011;60103;51.014;16.992;2023-04-08T08:02:25;15.50;;;7.20;;
72198;SDS011;60103;51.014;16.992;2023-04-08T08:04:54;15.80;;;6.80;;
72198;SDS011;60103;51.014;16.992;2023-04-08T08:07:24;15.80;;;6.50;;
72198;SDS011;60103;51.014;16.992;2023-04-08T08:09:52;14.00;;;6.70;;
72198;SDS011;60103;51.014;16.992;2023-04-08T08:12:21;12.80;;;6.10;;
72198;SDS011;60103;51.014;16.992;2023-04-08T08:14:50;15.70;;;7.30;;
72198;SDS011;60103;51.014;16.992;2023-04-08T08:17:22;15.50;;;6.50;;
72198;SDS011;60103;51.014;16.992;2023-04-08T08:19:53;14.40;;;6.90;;
72198;SDS011;60103;51.014;16.992;2023-04-08T08:22:21;14.20;;;6.50;;
72198;SDS011;60103;51.014;16.992;2023-04-08T08:24:56;12.30;;;5.80;;
72198;SDS011;60103;51.014;16.992;2023-04-08T08:27:25;15.60;;;6.40;;
72198;SDS011;60103;51.014;16.992;2023-04-08T08:29:54;15.00;;;6.70;;
72198;SDS011;60103;51.014;16.992;2023-04-08T08:32:24;14.70;;;6.60;;
72198;SDS011;60103;51.014;16.992;2023-04-08T08:34:53;16.10;;;6.90;;
72198;SDS011;60103;51.014;16.992;2023-04-08T08:37:22;16.50;;;7.10;;
72198;SDS011;60103;51.014;16.992;2023-04-08T08:39:50;16.90;;;7.00;;
72198;SDS011;60103;51.014;16.992;2023-04-08T08:42:20;15.20;;;6.80;;
72198;SDS011;60103;51.014;16.992;2023-04-08T08:44:49;13.70;;;6.30;;
72198;SDS011;60103;51.014;16.992;2023-04-08T08:47:18;14.90;;;7.00;;
72198;SDS011;60103;51.014;16.992;2023-04-08T08:49:47;15.60;;;7.90;;
72198;SDS011;60103;51.014;16.992;2023-04-08T08:52:16;15.30;;;7.30;;
72198;SDS011;60103;51.014;16.992;2023-04-08T08:54:47;15.80;;;7.10;;
72198;SDS011;60103;51.014;16.992;2023-04-08T08:57:17;14.40;;;6.70;;
72198;SDS011;60103;51.014;16.992;2023-04-08T08:59:47;16.60;;;7.60;;
72198;SDS011;60103;51.014;16.992;2023-04-08T09:02:27;17.80;;;7.90;;
72198;SDS011;60103;51.014;16.992;2023-04-08T09:04:58;13.20;;;5.90;;
72198;SDS011;60103;51.014;16.992;2023-04-08T09:07:34;15.10;;;7.00;;
72198;SDS011;60103;51.014;16.992;2023-04-08T09:10:04;15.20;;;7.20;;
72198;SDS011;60103;51.014;16.992;2023-04-08T09:12:35;16.00;;;7.40;;
72198;SDS011;60103;51.014;16.992;2023-04-08T09:15:21;15.20;;;6.50;;
72198;SDS011;60103;51.014;16.992;2023-04-08T09:17:50;13.90;;;7.00;;
72198;SDS011;60103;51.014;16.992;2023-04-08T09:20:20;14.70;;;6.60;;
72198;SDS011;60103;51.014;16.992;2023-04-08T09:22:59;14.40;;;7.00;;
72198;SDS011;60103;51.014;16.992;2023-04-08T09:25:31;13.70;;;6.50;;
72198;SDS011;60103;51.014;16.992;2023-04-08T09:28:00;14.90;;;6.80;;
72198;SDS011;60103;51.014;16.992;2023-04-08T09:30:30;13.50;;;5.60;;
72198;SDS011;60103;51.014;16.992;2023-04-08T09:33:00;13.10;;;6.40;;
72198;SDS011;60103;51.014;16.992;2023-04-08T09:35:35;16.00;;;7.20;;
72198;SDS011;60103;51.014;16.992;2023-04-08T09:38:04;13.50;;;5.90;;
72198;SDS011;60103;51.014;16.992;2023-04-08T09:40:33;14.00;;;6.40;;
72198;SDS011;60103;51.014;16.992;2023-04-08T09:43:04;12.50;;;5.70;;
72198;SDS011;60103;51.014;16.992;2023-04-08T09:45:34;13.60;;;5.90;;
72198;SDS011;60103;51.014;16.992;2023-04-08T09:48:16;15.90;;;5.20;;
72198;SDS011;60103;51.014;16.992;2023-04-08T09:50:51;14.60;;;6.50;;
72198;SDS011;60103;51.014;16.992;2023-04-08T09:53:23;14.90;;;6.70;;
72198;SDS011;60103;51.014;16.992;2023-04-08T09:55:57;14.30;;;5.50;;
72198;SDS011;60103;51.014;16.992;2023-04-08T09:58:32;14.40;;;6.70;;
72198;SDS011;60103;51.014;16.992;2023-04-08T10:01:06;14.40;;;6.40;;
72198;SDS011;60103;51.014;16.992;2023-04-08T10:03:47;13.40;;;5.80;;
72198;SDS011;60103;51.014;16.992;2023-04-08T10:06:18;14.30;;;5.80;;
72198;SDS011;60103;51.014;16.992;2023-04-08T10:08:49;13.90;;;5.90;;
72198;SDS011;60103;51.014;16.992;2023-04-08T10:11:18;13.60;;;6.50;;
72198;SDS011;60103;51.014;16.992;2023-04-08T10:13:47;11.80;;;5.50;;
72198;SDS011;60103;51.014;16.992;2023-04-08T10:16:23;11.90;;;5.70;;
72198;SDS011;60103;51.014;16.992;2023-04-08T10:18:57;13.70;;;6.70;;
72198;SDS011;60103;51.014;16.992;2023-04-08T10:21:32;13.50;;;6.80;;
72198;SDS011;60103;51.014;16.992;2023-04-08T10:24:15;12.80;;;6.50;;
72198;SDS011;60103;51.014;16.992;2023-04-08T10:26:46;13.30;;;6.20;;
72198;SDS011;60103;51.014;16.992;2023-04-08T10:31:45;15.50;;;7.10;;
72198;SDS011;60103;51.014;16.992;2023-04-08T10:34:20;13.80;;;6.10;;
72198;SDS011;60103;51.014;16.992;2023-04-08T10:36:52;13.60;;;5.30;;
72198;SDS011;60103;51.014;16.992;2023-04-08T10:39:23;13.50;;;5.90;;
72198;SDS011;60103;51.014;16.992;2023-04-08T10:41:52;11.60;;;5.20;;
72198;SDS011;60103;51.014;16.992;2023-04-08T10:44:22;13.50;;;6.60;;
72198;SDS011;60103;51.014;16.992;2023-04-08T10:46:52;14.70;;;7.20;;
72198;SDS011;60103;51.014;16.992;2023-04-08T10:49:21;16.00;;;7.00;;
72198;SDS011;60103;51.014;16.992;2023-04-08T10:51:51;14.30;;;6.50;;
72198;SDS011;60103;51.014;16.992;2023-04-08T10:54:22;14.50;;;7.00;;
72198;SDS011;60103;51.014;16.992;2023-04-08T10:56:51;14.30;;;7.40;;
72198;SDS011;60103;51.014;16.992;2023-04-08T10:59:30;15.10;;;6.90;;
72198;SDS011;60103;51.014;16.992;2023-04-08T11:02:00;12.10;;;5.60;;
72198;SDS011;60103;51.014;16.992;2023-04-08T11:04:30;16.00;;;7.80;;
72198;SDS011;60103;51.014;16.992;2023-04-08T11:06:59;14.60;;;6.40;;
72198;SDS011;60103;51.014;16.992;2023-04-08T11:09:27;15.20;;;8.10;;
72198;SDS011;60103;51.014;16.992;2023-04-08T11:11:56;16.00;;;7.70;;
72198;SDS011;60103;51.014;16.992;2023-04-08T11:14:25;14.00;;;6.70;;
72198;SDS011;60103;51.014;16.992;2023-04-08T11:16:54;16.50;;;8.00;;
72198;SDS011;60103;51.014;16.992;2023-04-08T11:19:23;15.30;;;7.90;;
72198;SDS011;60103;51.014;16.992;2023-04-08T11:21:52;15.60;;;7.40;;
72198;SDS011;60103;51.014;16.992;2023-04-08T11:24:21;15.90;;;8.20;;
72198;SDS011;60103;51.014;16.992;2023-04-08T11:26:50;15.80;;;7.80;;
72198;SDS011;60103;51.014;16.992;2023-04-08T11:29:19;15.90;;;7.80;;
72198;SDS011;60103;51.014;16.992;2023-04-08T11:31:48;15.30;;;8.30;;
72198;SDS011;60103;51.014;16.992;2023-04-08T11:34:22;14.30;;;7.00;;
72198;SDS011;60103;51.014;16.992;2023-04-08T11:36:51;15.60;;;8.40;;
72198;SDS011;60103;51.014;16.992;2023-04-08T11:39:23;14.90;;;7.60;;
72198;SDS011;60103;51.014;16.992;2023-04-08T11:41:52;14.30;;;7.20;;
72198;SDS011;60103;51.014;16.992;2023-04-08T11:44:28;15.10;;;8.20;;
72198;SDS011;60103;51.014;16.992;2023-04-08T11:47:01;16.40;;;8.00;;
72198;SDS011;60103;51.014;16.992;2023-04-08T11:49:42;14.70;;;7.60;;
72198;SDS011;60103;51.014;16.992;2023-04-08T11:52:13;17.20;;;8.70;;
72198;SDS011;60103;51.014;16.992;2023-04-08T11:54:42;17.10;;;7.80;;
72198;SDS011;60103;51.014;16.992;2023-04-08T11:57:11;15.20;;;7.60;;
72198;SDS011;60103;51.014;16.992;2023-04-08T11:59:40;17.30;;;9.40;;
72198;SDS011;60103;51.014;16.992;2023-04-08T12:02:08;15.20;;;8.10;;
72198;SDS011;60103;51.014;16.992;2023-04-08T12:04:39;16.30;;;8.20;;
72198;SDS011;60103;51.014;16.992;2023-04-08T12:07:07;14.70;;;7.90;;
72198;SDS011;60103;51.014;16.992;2023-04-08T12:09:40;16.40;;;8.40;;
72198;SDS011;60103;51.014;16.992;2023-04-08T12:12:08;15.70;;;8.50;;
72198;SDS011;60103;51.014;16.992;2023-04-08T12:14:38;15.00;;;7.90;;
72198;SDS011;60103;51.014;16.992;2023-04-08T12:17:08;14.50;;;7.60;;
72198;SDS011;60103;51.014;16.992;2023-04-08T12:19:37;16.80;;;8.60;;
72198;SDS011;60103;51.014;16.992;2023-04-08T12:22:06;16.60;;;8.50;;
72198;SDS011;60103;51.014;16.992;2023-04-08T12:24:35;14.90;;;8.00;;
72198;SDS011;60103;51.014;16.992;2023-04-08T12:27:03;16.40;;;8.00;;
72198;SDS011;60103;51.014;16.992;2023-04-08T12:29:32;16.70;;;7.80;;
72198;SDS011;60103;51.014;16.992;2023-04-08T12:32:01;14.70;;;7.40;;
72198;SDS011;60103;51.014;16.992;2023-04-08T12:34:31;16.00;;;8.50;;
72198;SDS011;60103;51.014;16.992;2023-04-08T12:37:00;15.30;;;8.30;;
72198;SDS011;60103;51.014;16.992;2023-04-08T12:39:30;16.80;;;8.40;;
72198;SDS011;60103;51.014;16.992;2023-04-08T12:41:59;16.40;;;8.50;;
72198;SDS011;60103;51.014;16.992;2023-04-08T12:44:28;15.20;;;8.30;;
72198;SDS011;60103;51.014;16.992;2023-04-08T12:46:57;17.10;;;8.60;;
72198;SDS011;60103;51.014;16.992;2023-04-08T12:49:26;16.30;;;8.80;;
72198;SDS011;60103;51.014;16.992;2023-04-08T12:51:55;15.20;;;8.10;;
72198;SDS011;60103;51.014;16.992;2023-04-08T12:54:25;17.20;;;8.50;;
72198;SDS011;60103;51.014;16.992;2023-04-08T12:56:53;14.50;;;8.20;;
72198;SDS011;60103;51.014;16.992;2023-04-08T12:59:24;17.70;;;9.40;;
72198;SDS011;60103;51.014;16.992;2023-04-08T13:01:53;15.40;;;8.80;;
72198;SDS011;60103;51.014;16.992;2023-04-08T13:04:23;14.80;;;8.00;;
72198;SDS011;60103;51.014;16.992;2023-04-08T13:06:52;15.30;;;8.10;;
72198;SDS011;60103;51.014;16.992;2023-04-08T13:09:21;16.40;;;7.60;;
72198;SDS011;60103;51.014;16.992;2023-04-08T13:11:50;14.10;;;7.20;;
72198;SDS011;60103;51.014;16.992;2023-04-08T13:14:19;15.60;;;8.00;;
72198;SDS011;60103;51.014;16.992;2023-04-08T13:16:48;15.50;;;8.10;;
72198;SDS011;60103;51.014;16.992;2023-04-08T13:19:18;15.80;;;7.90;;
72198;SDS011;60103;51.014;16.992;2023-04-08T13:21:48;15.00;;;8.20;;
72198;SDS011;60103;51.014;16.992;2023-04-08T13:24:16;15.30;;;7.70;;
72198;SDS011;60103;51.014;16.992;2023-04-08T13:26:45;15.10;;;7.20;;
72198;SDS011;60103;51.014;16.992;2023-04-08T13:29:14;14.60;;;7.00;;
72198;SDS011;60103;51.014;16.992;2023-04-08T13:31:43;13.80;;;7.10;;
72198;SDS011;60103;51.014;16.992;2023-04-08T13:34:12;14.90;;;6.90;;
72198;SDS011;60103;51.014;16.992;2023-04-08T13:36:41;14.70;;;7.30;;
72198;SDS011;60103;51.014;16.992;2023-04-08T13:39:10;13.10;;;6.90;;
72198;SDS011;60103;51.014;16.992;2023-04-08T13:41:39;11.70;;;6.20;;
72198;SDS011;60103;51.014;16.992;2023-04-08T13:44:08;13.00;;;6.60;;
72198;SDS011;60103;51.014;16.992;2023-04-08T13:46:37;10.20;;;4.70;;
72198;SDS011;60103;51.014;16.992;2023-04-08T13:49:07;12.90;;;6.30;;
72198;SDS011;60103;51.014;16.992;2023-04-08T13:51:36;13.10;;;6.70;;
72198;SDS011;60103;51.014;16.992;2023-04-08T13:54:05;12.00;;;6.20;;
72198;SDS011;60103;51.014;16.992;2023-04-08T13:56:34;13.20;;;6.50;;
72198;SDS011;60103;51.014;16.992;2023-04-08T13:59:03;11.20;;;5.00;;
72198;SDS011;60103;51.014;16.992;2023-04-08T14:01:32;11.50;;;5.30;;
72198;SDS011;60103;51.014;16.992;2023-04-08T14:04:01;14.70;;;6.90;;
72198;SDS011;60103;51.014;16.992;2023-04-08T14:06:30;11.80;;;6.10;;
72198;SDS011;60103;51.014;16.992;2023-04-08T14:08:59;14.40;;;7.50;;
72198;SDS011;60103;51.014;16.992;2023-04-08T14:11:29;12.40;;;6.40;;
72198;SDS011;60103;51.014;16.992;2023-04-08T14:13:58;12.20;;;6.00;;
72198;SDS011;60103;51.014;16.992;2023-04-08T14:16:27;12.80;;;6.50;;
72198;SDS011;60103;51.014;16.992;2023-04-08T14:18:58;12.90;;;6.20;;
72198;SDS011;60103;51.014;16.992;2023-04-08T14:21:27;11.70;;;5.90;;
72198;SDS011;60103;51.014;16.992;2023-04-08T14:23:56;14.70;;;6.70;;
72198;SDS011;60103;51.014;16.992;2023-04-08T14:26:28;12.80;;;6.10;;
72198;SDS011;60103;51.014;16.992;2023-04-08T14:28:58;13.10;;;6.40;;
72198;SDS011;60103;51.014;16.992;2023-04-08T14:31:27;13.20;;;7.20;;
72198;SDS011;60103;51.014;16.992;2023-04-08T14:33:56;13.40;;;6.00;;
72198;SDS011;60103;51.014;16.992;2023-04-08T14:36:28;12.80;;;6.90;;
72198;SDS011;60103;51.014;16.992;2023-04-08T14:38:58;12.30;;;6.10;;
72198;SDS011;60103;51.014;16.992;2023-04-08T14:41:27;12.80;;;6.60;;